Time;durP1;ratioP1;P1;durP2;ratioP2;P2;SDS_P1;SDS_P2;PMS_P1;PMS_P2;Temp;Humidity;BMP_temperature;BMP_pressure;BME280_temperature;BME280_humidity;BME280_pressure;Samples;Min_cycle;Max_cycle;Signal;HPM_P1;HPM_P2
2023/08/28 18:25:28;;;;;;;0.70;0.50;;;;;;;31.73;25.96;99943.69;4453470;27;19881946;-91
2023/08/28 18:30:30;;;;;;;0.55;0.40;;;;;;;31.60;26.59;99951.03;5105237;28;20432;-81
2023/08/28 18:32:59;;;;;;;0.63;0.40;;;;;;;31.65;26.43;99952.75;5104061;28;20392;-81
2023/08/28 18:35:25;;;;;;;0.30;0.30;;;;;;;31.56;26.94;99952.81;5096157;28;20767;-81
2023/08/28 18:37:51;;;;;;;0.20;0.20;;;;;;;31.50;26.45;99956.88;5106728;28;20544;-80
2023/08/28 18:40:19;;;;;;;0.47;0.47;;;;;;;31.47;26.32;99962.97;5107953;28;20414;-80
2023/08/28 18:42:44;;;;;;;0.30;0.30;;;;;;;31.47;26.38;99957.50;5108165;28;20369;-80
2023/08/28 18:45:10;;;;;;;0.35;0.32;;;;;;;31.48;26.03;99958.31;5106804;28;20399;-80
2023/08/28 18:47:38;;;;;;;0.25;0.25;;;;;;;31.49;26.20;99970.88;5107083;28;20449;-81
2023/08/28 18:50:04;;;;;;;0.52;0.43;;;;;;;31.50;25.96;99959.63;5105971;28;20392;-82
2023/08/28 18:52:30;;;;;;;0.38;0.35;;;;;;;31.51;26.22;99969.44;5107339;28;20870;-82
2023/08/28 18:54:55;;;;;;;0.63;0.63;;;;;;;31.58;26.06;99969.72;5106692;28;20403;-81
2023/08/28 18:57:24;;;;;;;0.30;0.30;;;;;;;31.64;25.62;99975.84;5106046;28;20384;-81
2023/08/28 18:59:50;;;;;;;0.28;0.28;;;;;;;31.71;25.47;99972.56;5107457;28;20372;-82
2023/08/28 19:02:18;;;;;;;0.30;0.30;;;;;;;31.68;25.49;99974.03;5107533;28;20902;-82
2023/08/28 19:04:46;;;;;;;0.30;0.30;;;;;;;31.57;25.89;99968.13;5105962;28;20399;-82
2023/08/28 19:07:12;;;;;;;2.50;0.40;;;;;;;31.53;25.64;99969.91;5088866;28;20446;-82
2023/08/28 19:09:37;;;;;;;0.30;0.30;;;;;;;31.42;25.65;99977.66;5106203;28;20398;-82
2023/08/28 19:12:03;;;;;;;0.30;0.30;;;;;;;31.37;25.72;99980.59;5107157;28;20379;-82
2023/08/28 19:14:29;;;;;;;0.37;0.37;;;;;;;31.27;25.57;99972.72;5107479;28;20869;-81
2023/08/28 19:16:55;;;;;;;0.60;0.40;;;;;;;31.23;25.64;99969.03;5106043;28;20824;-81
2023/08/28 19:19:23;;;;;;;0.60;0.60;;;;;;;31.14;25.74;99966.31;5107135;28;20369;-80
2023/08/28 19:21:48;;;;;;;0.47;0.38;;;;;;;31.13;25.45;99972.13;5106754;28;20446;-82
2023/08/28 19:24:14;;;;;;;0.43;0.33;;;;;;;31.06;25.60;99983.56;5105580;28;20891;-82
2023/08/28 19:26:40;;;;;;;0.27;0.27;;;;;;;31.05;25.79;99977.28;5106882;28;20387;-83
2023/08/28 19:29:06;;;;;;;0.63;0.40;;;;;;;31.15;25.32;99969.84;5106653;28;20885;-82
2023/08/28 19:31:31;;;;;;;1.40;1.30;;;;;;;31.11;25.41;99969.69;5105622;28;20489;-81
2023/08/28 19:33:57;;;;;;;0.30;0.30;;;;;;;31.04;25.85;99963.94;5105578;28;20434;-81
2023/08/28 19:36:23;;;;;;;0.30;0.30;;;;;;;31.01;25.53;99981.81;5093655;28;20452;-81
2023/08/28 19:38:48;;;;;;;0.30;0.30;;;;;;;31.04;25.61;99974.88;5070522;28;20391;-81
2023/08/28 19:41:15;;;;;;;0.50;0.50;;;;;;;30.96;25.78;99970.25;5070218;28;20379;-84
2023/08/28 19:43:41;;;;;;;0.35;0.35;;;;;;;30.93;25.55;99970.88;5070382;28;20414;-81
2023/08/28 19:46:08;;;;;;;0.50;0.50;;;;;;;30.86;26.02;99974.06;5053539;28;20452;-81
2023/08/28 19:48:34;;;;;;;0.40;0.40;;;;;;;30.80;26.03;99986.34;5053796;28;20448;-81
2023/08/28 19:51:03;;;;;;;0.40;0.40;;;;;;;30.78;25.93;99977.66;5070222;28;20383;-82
2023/08/28 19:53:29;;;;;;;0.20;0.20;;;;;;;30.75;26.23;99984.56;5052571;28;20425;-82
2023/08/28 19:55:59;;;;;;;0.55;0.55;;;;;;;30.69;26.19;99978.44;5069682;28;20422;-82
2023/08/28 19:58:25;;;;;;;0.35;0.30;;;;;;;30.71;26.12;99974.59;5053278;28;20425;-79
2023/08/28 20:00:50;;;;;;;0.30;0.30;;;;;;;30.67;25.91;99974.44;5070011;28;20539;-82
2023/08/28 20:03:16;;;;;;;0.30;0.30;;;;;;;30.62;26.21;99969.94;5070094;28;20410;-80
2023/08/28 20:05:41;;;;;;;0.53;0.40;;;;;;;30.59;26.08;99981.50;5052692;28;20896;-78
2023/08/28 20:08:08;;;;;;;0.30;0.30;;;;;;;30.48;26.41;99981.03;5069161;28;20391;-80
2023/08/28 20:10:34;;;;;;;0.25;0.25;;;;;;;30.36;26.78;99989.09;5087048;28;20389;-80
2023/08/28 20:13:00;;;;;;;0.47;0.40;;;;;;;30.16;27.31;99979.56;5092040;28;20477;-80
2023/08/28 20:15:26;;;;;;;0.40;0.40;;;;;;;30.16;27.37;99976.00;5092578;28;20421;-80
2023/08/28 20:17:52;;;;;;;0.30;0.30;;;;;;;30.13;27.29;99971.19;5090646;28;20396;-81
2023/08/28 20:20:17;;;;;;;0.57;0.50;;;;;;;29.93;28.18;99968.72;5091830;28;20392;-81
2023/08/28 20:22:43;;;;;;;0.52;0.50;;;;;;;29.81;28.18;99967.75;5092149;28;20880;-82
2023/08/28 20:25:08;;;;;;;0.68;0.65;;;;;;;29.76;28.11;99965.94;5092272;28;20380;-81
2023/08/28 20:27:34;;;;;;;0.20;0.20;;;;;;;29.71;28.06;99958.69;5091084;28;20814;-80
2023/08/28 20:30:01;;;;;;;0.43;0.40;;;;;;;29.64;27.84;99962.97;5092460;28;21099;-83
2023/08/28 20:32:26;;;;;;;0.33;0.33;;;;;;;29.51;28.44;99959.25;5092999;28;20464;-80
2023/08/28 20:34:54;;;;;;;0.23;0.23;;;;;;;29.49;28.48;99965.03;5091195;28;20381;-82
2023/08/28 20:37:19;;;;;;;0.30;0.30;;;;;;;29.47;28.50;99969.19;5090581;28;20518;-79
2023/08/28 20:39:45;;;;;;;0.47;0.47;;;;;;;29.47;28.40;99966.47;5091941;28;20938;-79
2023/08/28 20:42:10;;;;;;;0.43;0.30;;;;;;;29.51;28.19;99973.72;5091931;28;20972;-79
2023/08/28 20:44:40;;;;;;;0.70;0.70;;;;;;;29.47;28.23;99967.25;5090326;28;20401;-81
2023/08/28 20:47:05;;;;;;;0.50;0.50;;;;;;;29.34;28.41;99963.53;5089868;28;20762;-80
2023/08/28 20:49:32;;;;;;;0.20;0.20;;;;;;;29.19;28.59;99965.84;5092530;28;20480;-81
2023/08/28 20:51:58;;;;;;;0.50;0.40;;;;;;;29.15;28.65;99969.22;5093418;28;20450;-80
2023/08/28 20:54:23;;;;;;;0.38;0.32;;;;;;;29.16;28.69;99967.28;5090531;28;20436;-80
2023/08/28 20:56:50;;;;;;;0.50;0.50;;;;;;;29.02;28.70;99958.34;5091757;28;20856;-79
2023/08/28 20:59:15;;;;;;;0.30;0.30;;;;;;;28.87;28.83;99959.56;5091546;28;20726;-80
2023/08/28 21:01:41;;;;;;;0.75;0.75;;;;;;;28.82;28.70;99951.50;5092221;28;20377;-80
2023/08/28 21:04:07;;;;;;;0.35;0.35;;;;;;;28.74;29.06;99956.56;5091909;28;20408;-80
2023/08/28 21:06:32;;;;;;;0.30;0.30;;;;;;;28.73;28.90;99952.22;5090427;28;20382;-81
2023/08/28 21:09:01;;;;;;;0.30;0.30;;;;;;;28.72;28.80;99947.06;5092192;28;20421;-80
2023/08/28 21:11:29;;;;;;;0.30;0.30;;;;;;;28.74;28.78;99942.16;5092246;28;20431;-79
2023/08/28 21:13:55;;;;;;;0.40;0.30;;;;;;;28.70;28.90;99941.97;5091112;28;20401;-81
2023/08/28 21:16:21;;;;;;;1.00;0.40;;;;;;;28.74;28.71;99948.41;5091366;28;20450;-86
2023/08/28 21:18:47;;;;;;;0.30;0.30;;;;;;;28.63;28.83;99938.88;5073843;28;20534;-83
2023/08/28 21:21:13;;;;;;;0.38;0.30;;;;;;;28.50;29.08;99945.94;5093887;28;20389;-83
2023/08/28 21:23:39;;;;;;;0.40;0.30;;;;;;;28.42;29.33;99943.97;5093855;28;20489;-83
2023/08/28 21:26:06;;;;;;;0.40;0.40;;;;;;;28.36;29.00;99947.91;5091883;28;20491;-85
2023/08/28 21:28:34;;;;;;;0.25;0.25;;;;;;;28.40;29.40;99948.91;5077250;28;20733;-84
2023/08/28 21:31:05;;;;;;;0.30;0.30;;;;;;;28.37;29.63;99950.31;5088956;28;20428;-82
2023/08/28 21:33:33;;;;;;;0.50;0.40;;;;;;;28.34;30.23;99950.97;5089904;28;20378;-84
2023/08/28 21:36:03;;;;;;;0.45;0.38;;;;;;;28.25;30.57;99952.78;5089667;28;20439;-85
2023/08/28 21:38:30;;;;;;;0.30;0.30;;;;;;;28.15;30.85;99953.81;5089788;28;20377;-84
2023/08/28 21:40:57;;;;;;;0.80;0.70;;;;;;;28.12;30.99;99953.63;5072287;28;20382;-84
2023/08/28 21:43:23;;;;;;;0.45;0.45;;;;;;;28.00;31.47;99944.06;5089462;28;20992;-83
2023/08/28 21:46:04;;;;;;;0.60;0.50;;;;;;;27.89;31.49;99944.56;5089195;28;20419;-83
2023/08/28 21:48:33;;;;;;;0.50;0.50;;;;;;;27.79;32.30;99942.88;5088846;28;20460;-83
2023/08/28 21:51:00;;;;;;;0.20;0.20;;;;;;;27.70;31.93;99931.88;5088857;28;20926;-83
2023/08/28 21:53:26;;;;;;;0.77;0.60;;;;;;;27.67;32.22;99931.66;5071713;28;20509;-83
2023/08/28 21:55:53;;;;;;;0.30;0.30;;;;;;;27.54;32.43;99931.38;5087608;28;20393;-83
2023/08/28 21:58:19;;;;;;;1.27;0.60;;;;;;;27.52;31.97;99938.25;5071209;28;20450;-84
2023/08/28 22:00:44;;;;;;;0.30;0.30;;;;;;;27.52;32.28;99940.97;5088876;28;20752;-83
2023/08/28 22:03:11;;;;;;;0.30;0.30;;;;;;;27.47;32.29;99936.41;5089155;28;20470;-84
2023/08/28 22:05:39;;;;;;;0.47;0.47;;;;;;;27.45;32.64;99933.19;5092036;28;20421;-82
2023/08/28 22:08:07;;;;;;;0.52;0.47;;;;;;;27.37;32.49;99921.09;5066046;28;20476;-85
2023/08/28 22:10:33;;;;;;;1.30;0.60;;;;;;;27.37;32.50;99929.25;5099526;28;20412;-82
2023/08/28 22:12:59;;;;;;;0.63;0.40;;;;;;;27.37;32.66;99934.69;5084604;28;20883;-84
2023/08/28 22:15:35;;;;;;;0.30;0.30;;;;;;;27.27;32.95;99930.25;5100851;28;20377;-85
2023/08/28 22:18:04;;;;;;;0.32;0.32;;;;;;;27.29;33.10;99926.44;5101847;28;20477;-83
2023/08/28 22:20:36;;;;;;;0.50;0.50;;;;;;;27.33;32.63;99927.44;5101075;28;20442;-84
2023/08/28 22:23:02;;;;;;;0.60;0.60;;;;;;;27.49;32.47;99925.22;5091815;28;20377;-85
2023/08/28 22:25:27;;;;;;;0.45;0.45;;;;;;;27.45;32.50;99928.53;5089013;28;20397;-82
2023/08/28 22:27:53;;;;;;;0.40;0.40;;;;;;;27.46;32.25;99922.00;5090738;28;20579;-84
2023/08/28 22:30:19;;;;;;;0.20;0.20;;;;;;;27.50;32.70;99929.56;5089169;28;20429;-83
2023/08/28 22:32:45;;;;;;;0.73;0.52;;;;;;;27.42;32.88;99918.28;5089175;28;20393;-83
2023/08/28 22:35:15;;;;;;;0.35;0.28;;;;;;;27.32;33.04;99918.47;5089258;28;20469;-83
2023/08/28 22:37:42;;;;;;;0.30;0.30;;;;;;;27.21;33.25;99920.53;5090522;28;20389;-82
2023/08/28 22:40:08;;;;;;;0.70;0.40;;;;;;;27.18;33.50;99929.31;5090081;28;20465;-85
2023/08/28 22:42:34;;;;;;;0.32;0.32;;;;;;;27.10;33.82;99927.28;5088097;28;20377;-85
2023/08/28 22:45:00;;;;;;;0.50;0.50;;;;;;;27.05;33.84;99928.19;5087655;28;20409;-85
2023/08/28 22:47:25;;;;;;;0.50;0.40;;;;;;;27.06;33.93;99937.97;5088855;28;20392;-86
2023/08/28 22:49:51;;;;;;;0.30;0.30;;;;;;;27.04;33.95;99934.72;5088884;28;20389;-85
2023/08/28 22:52:16;;;;;;;0.53;0.40;;;;;;;27.04;34.08;99942.88;5088647;28;20463;-84
2023/08/28 22:54:42;;;;;;;0.40;0.40;;;;;;;26.99;34.14;99932.09;5087156;28;20406;-83
2023/08/28 22:57:12;;;;;;;0.37;0.30;;;;;;;27.00;34.03;99932.91;5089728;28;20388;-83
2023/08/28 22:59:38;;;;;;;0.40;0.32;;;;;;;27.04;34.07;99940.16;5089808;28;20378;-84
2023/08/28 23:02:04;;;;;;;0.43;0.43;;;;;;;27.05;34.00;99943.69;5089761;28;20752;-83
2023/08/28 23:04:29;;;;;;;0.50;0.40;;;;;;;27.09;33.81;99947.44;5088290;28;20523;-83
2023/08/28 23:06:55;;;;;;;0.30;0.30;;;;;;;27.08;34.06;99943.06;5072082;28;20476;-82
2023/08/28 23:09:22;;;;;;;0.30;0.30;;;;;;;27.05;33.91;99949.94;5088858;28;20389;-84
2023/08/28 23:11:49;;;;;;;0.20;0.20;;;;;;;27.15;33.89;99948.94;5093362;28;20385;-82
2023/08/28 23:14:15;;;;;;;0.30;0.30;;;;;;;27.20;33.57;99946.13;5094306;28;20381;-83
2023/08/28 23:16:40;;;;;;;0.28;0.28;;;;;;;27.31;33.40;99949.50;5092379;28;20526;-84
2023/08/28 23:19:06;;;;;;;0.40;0.40;;;;;;;27.41;33.35;99957.47;5092454;28;20373;-83
2023/08/28 23:21:31;;;;;;;0.30;0.30;;;;;;;27.46;32.71;99959.31;5094029;28;20804;-83
2023/08/28 23:23:59;;;;;;;0.33;0.33;;;;;;;27.48;33.16;99961.72;5093185;28;20503;-85
2023/08/28 23:26:25;;;;;;;0.40;0.40;;;;;;;27.50;32.87;99967.69;5093099;28;20472;-82
2023/08/28 23:28:50;;;;;;;0.30;0.30;;;;;;;27.47;33.23;99977.25;5093074;28;20832;-83
2023/08/28 23:31:16;;;;;;;0.30;0.30;;;;;;;27.49;33.07;99966.84;5092215;28;20393;-82
2023/08/28 23:33:43;;;;;;;0.32;0.32;;;;;;;27.23;33.68;99967.31;5092766;28;20472;-82
2023/08/28 23:36:08;;;;;;;0.43;0.43;;;;;;;27.01;34.34;99975.31;5093921;28;20860;-82
2023/08/28 23:38:34;;;;;;;0.60;0.60;;;;;;;26.86;34.95;99976.38;5093563;28;20394;-83
2023/08/28 23:41:01;;;;;;;0.30;0.30;;;;;;;26.67;35.30;99968.25;5093322;28;20385;-82
2023/08/28 23:43:26;;;;;;;0.28;0.25;;;;;;;26.56;35.38;99969.47;5093228;28;20393;-84
2023/08/28 23:45:52;;;;;;;0.43;0.33;;;;;;;26.62;35.24;99962.91;5093310;28;20739;-84
2023/08/28 23:48:17;;;;;;;0.40;0.40;;;;;;;26.67;35.11;99960.91;5092451;28;20386;-84
2023/08/28 23:50:43;;;;;;;0.43;0.43;;;;;;;26.63;34.92;99959.88;5092702;28;20419;-82
2023/08/28 23:53:08;;;;;;;0.30;0.30;;;;;;;26.60;35.02;99952.28;5091083;28;20773;-82
2023/08/28 23:55:34;;;;;;;0.60;0.60;;;;;;;26.63;34.97;99950.91;5092300;28;20405;-81
2023/08/28 23:58:00;;;;;;;0.20;0.20;;;;;;;26.62;35.03;99952.81;5091118;28;20385;-84
